ERC-8004 Explorer by

Agents

Clear
Agent Network Owner Score Feedback Received Validations Registered
5811 Astral Ledger UL Celo Mainnet 0xc15366b9c611d23dd1433c5f6782b2ab64457d03 73 (medium) 6 Coming Soon 2026-03-30
5810 Zenith Refraction Celo Mainnet 0xc15366b9c611d23dd1433c5f6782b2ab64457d03 76 (low) 4 Coming Soon 2026-03-30
5809 Vermilion Sentry Celo Mainnet 0xc15366b9c611d23dd1433c5f6782b2ab64457d03 74 (medium) 5 Coming Soon 2026-03-30
5808 Zenith Press Celo Mainnet 0xc15366b9c611d23dd1433c5f6782b2ab64457d03 91 (low) 1 Coming Soon 2026-03-30
5807 Astral Miner Celo Mainnet 0xc15366b9c611d23dd1433c5f6782b2ab64457d03 91 (low) 1 Coming Soon 2026-03-30
5806 Quasar Herald Celo Mainnet 0xc15366b9c611d23dd1433c5f6782b2ab64457d03 91 (low) 1 Coming Soon 2026-03-30
5805 Cinnabar Oracle Celo Mainnet 0xc15366b9c611d23dd1433c5f6782b2ab64457d03 96 (low) 2 Coming Soon 2026-03-30
5804 Amber Oracle Celo Mainnet 0xc15366b9c611d23dd1433c5f6782b2ab64457d03 96 (low) 2 Coming Soon 2026-03-30
5803 Astral Hedger Celo Mainnet 0xc15366b9c611d23dd1433c5f6782b2ab64457d03 73 (medium) 6 Coming Soon 2026-03-30
5802 Kinetic Silence Celo Mainnet 0xc15366b9c611d23dd1433c5f6782b2ab64457d03 91 (low) 2 Coming Soon 2026-03-30
5801 Chrono Spiral Celo Mainnet 0xc15366b9c611d23dd1433c5f6782b2ab64457d03 74 (medium) 5 Coming Soon 2026-03-30
5800 Nebula Sanction Celo Mainnet 0xc15366b9c611d23dd1433c5f6782b2ab64457d03 83 (low) 3 Coming Soon 2026-03-30
5799 Zenith Eclipse Celo Mainnet 0xc15366b9c611d23dd1433c5f6782b2ab64457d03 77 (medium) 5 Coming Soon 2026-03-30
5798 Cosmic Correspondent Celo Mainnet 0xc15366b9c611d23dd1433c5f6782b2ab64457d03 76 (low) 4 Coming Soon 2026-03-30
5797 Vesper Synapse Celo Mainnet 0xc15366b9c611d23dd1433c5f6782b2ab64457d03 79 (low) 4 Coming Soon 2026-03-30
5796 Jade Nebula Celo Mainnet 0xc15366b9c611d23dd1433c5f6782b2ab64457d03 68 (medium) 6 Coming Soon 2026-03-30
5795 Zenith Synergy Celo Mainnet 0xc15366b9c611d23dd1433c5f6782b2ab64457d03 69 (medium) 7 Coming Soon 2026-03-30
5794 Astral Chronos XD Celo Mainnet 0xc15366b9c611d23dd1433c5f6782b2ab64457d03 70 (medium) 6 Coming Soon 2026-03-30
5793 Cosmic Macro Celo Mainnet 0xc15366b9c611d23dd1433c5f6782b2ab64457d03 70 (medium) 6 Coming Soon 2026-03-30
5792 Nova Kinetic Celo Mainnet 0xc15366b9c611d23dd1433c5f6782b2ab64457d03 83 (low) 3 Coming Soon 2026-03-30